Time;durP1;ratioP1;P1;durP2;ratioP2;P2;SDS_P1;SDS_P2;PMS_P1;PMS_P2;Temp;Humidity;BMP_temperature;BMP_pressure;BME280_temperature;BME280_humidity;BME280_pressure;Samples;Min_cycle;Max_cycle;Signal;HPM_P1;HPM_P2
2021/04/20 00:01:12;;;;;;;79.15;52.90;;;8.60;99.90;;;;;;5041608;28;20053;-84
2021/04/20 00:03:39;;;;;;;72.20;49.88;;;8.60;99.90;;;;;;5049095;28;20454;-84
2021/04/20 00:06:06;;;;;;;72.93;49.78;;;8.60;99.90;;;;;;5040942;28;20520;-86
2021/04/20 00:08:36;;;;;;;70.82;48.75;;;8.60;99.90;;;;;;5040116;28;20053;-87
2021/04/20 00:11:10;;;;;;;75.55;51.35;;;8.60;99.90;;;;;;5047520;28;20059;-85
2021/04/20 00:13:36;;;;;;;77.90;52.47;;;8.60;99.90;;;;;;5050887;28;20496;-85
2021/04/20 00:16:03;;;;;;;72.13;50.17;;;8.60;99.90;;;;;;5050650;28;20073;-86
2021/04/20 00:18:33;;;;;;;76.88;51.63;;;8.60;99.90;;;;;;5048519;28;20045;-85
2021/04/20 00:20:59;;;;;;;75.30;51.80;;;8.50;99.90;;;;;;5049100;28;20049;-85
2021/04/20 00:23:26;;;;;;;75.93;50.72;;;8.50;99.90;;;;;;5048714;28;20081;-86
2021/04/20 00:26:10;;;;;;;74.22;51.20;;;8.50;99.90;;;;;;5047236;28;20045;-84
2021/04/20 00:28:36;;;;;;;75.10;50.65;;;8.50;99.90;;;;;;5045928;28;20057;-85
2021/04/20 00:31:03;;;;;;;75.82;51.53;;;8.40;99.90;;;;;;5046447;28;20389;-85
2021/04/20 00:33:29;;;;;;;74.60;49.00;;;8.40;99.90;;;;;;5046730;28;20160;-83
2021/04/20 00:35:59;;;;;;;70.18;46.45;;;8.30;99.90;;;;;;5045781;28;20091;-84
2021/04/20 00:38:28;;;;;;;69.90;47.83;;;8.30;99.90;;;;;;5044878;28;20088;-85
2021/04/20 00:41:06;;;;;;;74.63;49.22;;;8.20;99.90;;;;;;5045286;28;20049;-84
2021/04/20 00:43:34;;;;;;;78.35;51.85;;;8.10;99.90;;;;;;5046043;28;20084;-84
2021/04/20 00:46:01;;;;;;;75.28;49.30;;;8.10;99.90;;;;;;5049039;28;20095;-85
2021/04/20 00:48:27;;;;;;;76.53;50.20;;;8.00;99.90;;;;;;5046762;28;20075;-85
2021/04/20 00:50:57;;;;;;;79.25;52.13;;;8.00;99.90;;;;;;5043909;28;20046;-85
2021/04/20 00:53:24;;;;;;;70.90;49.42;;;8.00;99.90;;;;;;5044994;28;20059;-84
2021/04/20 00:55:52;;;;;;;74.85;51.03;;;8.00;99.90;;;;;;5044199;28;20110;-86
2021/04/20 00:58:25;;;;;;;72.68;49.38;;;8.00;99.90;;;;;;5045765;28;20065;-86
2021/04/20 01:00:56;;;;;;;76.63;50.13;;;7.90;99.90;;;;;;5044735;28;20064;-85
2021/04/20 01:03:25;;;;;;;73.35;49.28;;;7.90;99.90;;;;;;5048668;28;20088;-85
2021/04/20 01:05:53;;;;;;;79.97;51.08;;;7.90;99.90;;;;;;5048803;28;20045;-85
2021/04/20 01:08:22;;;;;;;77.93;48.25;;;7.80;99.90;;;;;;5046010;28;20140;-85
2021/04/20 01:10:53;;;;;;;69.80;45.72;;;7.80;99.90;;;;;;5051649;28;20083;-85
2021/04/20 01:13:22;;;;;;;66.97;44.78;;;7.80;99.90;;;;;;5036968;28;20068;-84
2021/04/20 01:15:59;;;;;;;66.50;44.22;;;7.70;99.90;;;;;;5035957;28;20113;-85
2021/04/20 01:18:28;;;;;;;64.68;42.97;;;7.70;99.90;;;;;;5036874;28;20060;-85
2021/04/20 01:20:57;;;;;;;71.47;46.35;;;7.60;99.90;;;;;;5039101;28;20057;-86
2021/04/20 01:23:42;;;;;;;86.97;50.95;;;7.50;99.90;;;;;;5040445;28;20049;-85
2021/04/20 01:26:12;;;;;;;88.43;53.00;;;7.40;99.90;;;;;;5040934;28;20053;-86
2021/04/20 01:28:44;;;;;;;94.15;55.47;;;7.40;99.90;;;;;;5042504;28;20049;-85
2021/04/20 01:31:11;;;;;;;;;;;7.50;99.90;;;;;;5042748;28;20049;-84
2021/04/20 01:33:44;;;;;;;91.85;52.72;;;7.50;99.90;;;;;;5043236;28;19956;-87
2021/04/20 01:36:11;;;;;;;;;;;7.50;99.90;;;;;;5044493;28;20050;-87
2021/04/20 01:38:38;;;;;;;99.35;56.15;;;7.50;99.90;;;;;;5049390;28;19971;-84
2021/04/20 01:41:27;;;;;;;101.75;59.22;;;7.50;99.90;;;;;;5045614;28;20085;-84
2021/04/20 01:47:05;;;;;;;98.28;56.28;;;7.50;99.90;;;;;;5040313;28;20099;-85
2021/04/20 01:49:33;;;;;;;90.38;55.92;;;7.50;99.90;;;;;;5041750;28;20053;-85
2021/04/20 01:51:59;;;;;;;93.18;56.60;;;7.50;99.90;;;;;;5037776;28;20049;-86
2021/04/20 01:54:26;;;;;;;92.13;56.45;;;7.50;99.90;;;;;;5038046;28;20128;-84
2021/04/20 01:57:03;;;;;;;94.00;56.47;;;7.50;99.90;;;;;;5044216;28;20077;-85
2021/04/20 02:00:03;;;;;;;88.85;53.67;;;7.50;99.90;;;;;;5044602;28;20462;-86
2021/04/20 02:02:31;;;;;;;89.93;53.28;;;7.40;99.90;;;;;;5039027;28;20116;-83
2021/04/20 02:05:42;;;;;;;108.78;54.47;;;7.40;99.90;;;;;;5046549;28;20072;-83
2021/04/20 02:08:11;;;;;;;91.88;51.45;;;7.20;99.90;;;;;;5040745;28;20053;-85
2021/04/20 02:10:39;;;;;;;96.85;52.47;;;7.20;99.90;;;;;;5039364;28;20161;-83
2021/04/20 02:13:07;;;;;;;87.68;53.03;;;7.20;99.90;;;;;;5040148;28;20114;-84
2021/04/20 02:15:36;;;;;;;83.55;51.33;;;7.10;99.90;;;;;;5040579;28;20049;-84
2021/04/20 02:18:09;;;;;;;89.28;51.53;;;7.10;99.90;;;;;;5040756;28;20057;-83
2021/04/20 02:20:38;;;;;;;89.13;53.80;;;7.00;99.90;;;;;;5047042;28;20049;-83
2021/04/20 02:23:11;;;;;;;93.45;53.17;;;7.00;99.90;;;;;;5046290;28;20106;-85
2021/04/20 02:25:41;;;;;;;98.88;56.63;;;7.00;99.90;;;;;;5044270;28;20060;-83
2021/04/20 02:28:09;;;;;;;96.93;56.80;;;6.90;99.90;;;;;;5044106;28;20140;-83
2021/04/20 02:30:37;;;;;;;94.40;56.40;;;6.80;99.90;;;;;;5044803;28;20060;-85
2021/04/20 02:33:07;;;;;;;96.30;55.85;;;6.80;99.90;;;;;;5048415;28;20046;-87
2021/04/20 02:35:35;;;;;;;110.93;61.65;;;6.80;99.90;;;;;;5047484;28;20141;-87
2021/04/20 02:38:08;;;;;;;105.95;59.33;;;6.70;99.90;;;;;;5047774;28;20061;-85
2021/04/20 02:40:38;;;;;;;103.85;59.80;;;6.70;99.90;;;;;;5048541;28;20425;-85
2021/04/20 02:43:17;;;;;;;108.65;59.35;;;6.70;99.90;;;;;;5048595;28;20107;-85
2021/04/20 02:46:22;;;;;;;105.85;59.78;;;6.70;99.90;;;;;;5048414;28;20053;-86
2021/04/20 02:48:59;;;;;;;98.43;57.13;;;6.80;99.90;;;;;;5030856;28;20140;-85
2021/04/20 02:51:37;;;;;;;96.68;56.83;;;6.80;99.90;;;;;;5049961;28;20057;-86
2021/04/20 02:54:04;;;;;;;97.15;55.47;;;6.80;99.90;;;;;;5049325;28;20057;-84
2021/04/20 02:56:31;;;;;;;95.57;54.65;;;6.80;99.90;;;;;;5048421;28;20318;-84
2021/04/20 02:59:00;;;;;;;94.18;53.83;;;6.80;99.90;;;;;;5047855;28;20148;-84
2021/04/20 03:01:30;;;;;;;92.70;53.70;;;6.80;99.90;;;;;;5047476;28;20057;-82
2021/04/20 03:03:57;;;;;;;91.72;53.22;;;6.70;99.90;;;;;;5045970;28;20069;-84
2021/04/20 03:06:24;;;;;;;88.68;52.22;;;6.70;99.90;;;;;;5046663;28;20082;-84
2021/04/20 03:08:52;;;;;;;86.63;52.53;;;6.70;99.90;;;;;;5045843;28;20474;-84
2021/04/20 03:11:23;;;;;;;84.18;50.05;;;6.70;99.90;;;;;;5046401;28;20073;-84
2021/04/20 03:13:49;;;;;;;83.97;48.80;;;6.60;99.90;;;;;;5047428;28;20517;-83
2021/04/20 03:16:17;;;;;;;77.43;47.47;;;6.60;99.90;;;;;;5049065;28;20113;-84
2021/04/20 03:18:48;;;;;;;84.25;51.40;;;6.60;99.90;;;;;;5048906;28;20128;-84
2021/04/20 03:21:16;;;;;;;87.80;52.05;;;6.50;99.90;;;;;;5048449;28;20064;-85
2021/04/20 03:23:44;;;;;;;85.03;51.13;;;6.50;99.90;;;;;;5046664;28;20180;-85
2021/04/20 03:26:35;;;;;;;96.53;54.63;;;6.40;99.90;;;;;;5047273;28;20045;-82
2021/04/20 03:29:04;;;;;;;100.72;56.00;;;6.50;99.90;;;;;;5073211;23;20142;-78
2021/04/20 03:31:32;;;;;;;108.28;56.47;;;6.50;99.90;;;;;;5069510;28;20131;-79
2021/04/20 03:34:04;;;;;;;96.57;54.88;;;6.40;99.90;;;;;;5077836;28;20504;-79
2021/04/20 03:36:33;;;;;;;108.45;57.30;;;6.40;99.90;;;;;;5076529;28;20131;-79
2021/04/20 03:39:04;;;;;;;111.40;58.60;;;6.40;99.90;;;;;;5078282;28;20128;-78
2021/04/20 03:41:36;;;;;;;106.28;54.80;;;6.40;99.90;;;;;;5077425;28;20059;-78
2021/04/20 03:44:04;;;;;;;113.68;58.70;;;6.30;99.90;;;;;;5079462;28;20483;-79
2021/04/20 03:46:34;;;;;;;111.57;59.20;;;6.30;99.90;;;;;;5078628;28;20057;-77
2021/04/20 03:49:07;;;;;;;114.35;58.50;;;6.30;99.90;;;;;;5076331;28;20083;-77
2021/04/20 03:51:35;;;;;;;112.85;58.83;;;6.30;99.90;;;;;;5078010;28;20052;-78
2021/04/20 03:54:07;;;;;;;104.65;56.63;;;6.30;99.90;;;;;;5077283;28;20108;-79
2021/04/20 03:56:34;;;;;;;107.85;56.33;;;6.30;99.90;;;;;;5077175;28;20098;-78
2021/04/20 03:59:03;;;;;;;107.05;58.00;;;6.20;99.90;;;;;;5078660;28;20131;-77
2021/04/20 04:01:37;;;;;;;104.05;56.63;;;6.20;99.90;;;;;;5078149;28;20127;-78
2021/04/20 04:04:07;;;;;;;102.22;56.17;;;6.20;99.90;;;;;;5074958;28;20082;-78
2021/04/20 04:06:36;;;;;;;103.00;56.15;;;6.20;99.90;;;;;;5074396;28;20055;-78
2021/04/20 04:09:03;;;;;;;111.75;57.92;;;6.20;99.90;;;;;;5074873;28;20075;-77
2021/04/20 04:11:32;;;;;;;105.20;58.92;;;6.10;99.90;;;;;;5074840;28;20048;-78
2021/04/20 04:14:01;;;;;;;102.97;54.65;;;6.20;99.90;;;;;;5075631;28;20131;-78
2021/04/20 04:16:30;;;;;;;103.90;56.88;;;6.20;99.90;;;;;;5073897;28;20112;-78
2021/04/20 04:18:59;;;;;;;98.57;55.33;;;6.20;99.90;;;;;;5074055;28;20052;-78
2021/04/20 04:21:30;;;;;;;107.03;56.45;;;6.20;99.90;;;;;;5074492;28;20098;-78
2021/04/20 04:24:03;;;;;;;105.25;56.70;;;6.20;99.90;;;;;;5074471;28;20052;-78
2021/04/20 04:26:35;;;;;;;108.38;56.20;;;6.20;99.90;;;;;;5073717;28;20139;-78
2021/04/20 04:29:03;;;;;;;107.72;58.03;;;6.20;99.90;;;;;;5074821;28;20135;-78
2021/04/20 04:31:32;;;;;;;104.95;56.38;;;6.20;99.90;;;;;;5074973;28;20109;-78
2021/04/20 04:34:01;;;;;;;98.78;54.50;;;6.20;99.90;;;;;;5075298;28;20554;-78
2021/04/20 04:36:27;;;;;;;102.30;56.22;;;6.20;99.90;;;;;;5074331;28;20173;-78
2021/04/20 04:38:54;;;;;;;96.65;55.33;;;6.20;99.90;;;;;;5075143;28;20072;-79
2021/04/20 04:41:21;;;;;;;110.22;56.17;;;6.10;99.90;;;;;;5078199;28;20202;-80
2021/04/20 04:43:50;;;;;;;104.72;56.20;;;6.10;99.90;;;;;;5077664;28;20087;-79
2021/04/20 04:46:17;;;;;;;106.35;57.38;;;6.10;99.90;;;;;;5076914;28;20508;-80
2021/04/20 04:48:44;;;;;;;101.95;55.67;;;6.00;99.90;;;;;;5077453;28;20055;-79
2021/04/20 04:51:13;;;;;;;112.93;59.45;;;6.00;99.90;;;;;;5077569;28;20109;-79
2021/04/20 04:53:40;;;;;;;117.43;59.63;;;6.00;99.90;;;;;;5077078;28;20471;-81
2021/04/20 04:56:08;;;;;;;114.82;59.45;;;5.90;99.90;;;;;;5074811;28;20051;-76
2021/04/20 04:58:36;;;;;;;104.63;56.83;;;5.90;99.90;;;;;;5073021;28;20048;-78
2021/04/20 05:01:04;;;;;;;106.15;57.92;;;6.00;99.90;;;;;;5073408;28;20055;-79
2021/04/20 05:03:31;;;;;;;98.07;56.20;;;6.00;99.90;;;;;;5073661;28;20076;-77
2021/04/20 05:05:59;;;;;;;98.93;55.28;;;6.10;99.90;;;;;;5073384;28;20051;-78
2021/04/20 05:08:27;;;;;;;97.10;54.50;;;6.20;99.90;;;;;;5072864;28;20060;-78
2021/04/20 05:11:00;;;;;;;90.28;52.25;;;6.20;99.90;;;;;;5072751;28;20087;-78
2021/04/20 05:13:27;;;;;;;86.07;50.75;;;6.30;99.90;;;;;;5072821;28;20083;-78
2021/04/20 05:15:54;;;;;;;85.60;48.92;;;6.40;99.90;;;;;;5072813;28;20134;-78
2021/04/20 05:18:21;;;;;;;75.72;47.67;;;6.50;99.90;;;;;;5074663;28;20136;-78
2021/04/20 05:20:48;;;;;;;73.78;44.40;;;6.60;99.90;;;;;;5076668;28;20211;-78
2021/04/20 05:23:16;;;;;;;65.63;42.83;;;6.60;99.90;;;;;;5074921;28;20413;-78
2021/04/20 05:25:44;;;;;;;66.65;41.03;;;6.70;99.90;;;;;;5075679;28;20450;-78
2021/04/20 05:28:10;;;;;;;61.50;40.58;;;6.80;99.90;;;;;;5073470;28;20056;-78
2021/04/20 05:30:37;;;;;;;52.47;36.78;;;6.90;99.90;;;;;;5072696;28;20139;-78
2021/04/20 05:33:04;;;;;;;53.33;36.17;;;6.90;99.90;;;;;;5073112;28;20135;-78
2021/04/20 05:35:30;;;;;;;56.00;36.55;;;6.90;99.90;;;;;;5079673;28;20079;-79
2021/04/20 05:37:57;;;;;;;57.15;36.70;;;7.00;99.90;;;;;;5077025;28;20048;-78
2021/04/20 05:40:26;;;;;;;50.58;34.00;;;7.10;99.90;;;;;;5076345;28;20080;-78
2021/04/20 05:42:54;;;;;;;49.63;33.20;;;7.30;99.90;;;;;;5072869;28;20087;-78
2021/04/20 05:45:21;;;;;;;38.65;28.70;;;7.40;99.90;;;;;;5072109;28;20129;-78
2021/04/20 05:47:49;;;;;;;36.17;26.15;;;7.90;99.90;;;;;;5072218;28;20112;-79
2021/04/20 05:50:20;;;;;;;31.98;24.00;;;8.60;99.90;;;;;;5071910;28;20053;-78
2021/04/20 05:52:46;;;;;;;34.25;24.00;;;9.30;99.90;;;;;;5075097;28;20048;-79
2021/04/20 05:55:13;;;;;;;34.15;23.15;;;10.10;99.90;;;;;;5076940;28;20080;-80
2021/04/20 05:57:43;;;;;;;32.72;23.05;;;10.60;99.90;;;;;;5076110;28;20040;-80
2021/04/20 06:00:12;;;;;;;32.53;23.65;;;11.00;99.90;;;;;;5076455;28;20143;-79
2021/04/20 06:02:39;;;;;;;30.50;23.35;;;11.40;99.90;;;;;;5075690;28;20127;-77
2021/04/20 06:05:10;;;;;;;39.22;22.95;;;11.70;99.90;;;;;;5077785;28;20079;-77
2021/04/20 06:07:38;;;;;;;31.15;23.80;;;12.20;99.90;;;;;;5078133;28;20139;-78
2021/04/20 06:10:08;;;;;;;30.30;25.23;;;12.70;99.90;;;;;;5078016;28;20064;-78
2021/04/20 06:12:35;;;;;;;37.40;26.88;;;13.20;99.90;;;;;;5076852;28;20080;-77
2021/04/20 06:15:01;;;;;;;33.00;27.30;;;13.50;99.90;;;;;;5076649;28;20080;-77
2021/04/20 06:17:29;;;;;;;35.65;28.65;;;13.50;99.90;;;;;;5076014;28;20131;-78
2021/04/20 06:19:57;;;;;;;42.65;30.27;;;13.60;99.90;;;;;;5075938;28;20053;-78
2021/04/20 06:22:24;;;;;;;37.28;28.48;;;13.80;99.90;;;;;;5079858;28;20048;-78
2021/04/20 06:24:51;;;;;;;38.50;30.13;;;14.00;99.90;;;;;;5080855;28;20159;-78
2021/04/20 06:27:18;;;;;;;37.45;29.80;;;14.20;99.90;;;;;;5079720;28;20497;-79
2021/04/20 06:29:44;;;;;;;43.25;29.27;;;14.00;99.90;;;;;;5079800;28;20143;-78
2021/04/20 06:32:12;;;;;;;37.03;29.65;;;14.30;99.90;;;;;;5078436;28;20135;-79
2021/04/20 06:34:39;;;;;;;36.33;29.05;;;14.20;99.90;;;;;;5079016;28;20048;-79
2021/04/20 06:37:08;;;;;;;37.35;29.50;;;14.00;99.90;;;;;;5081629;28;20052;-79
2021/04/20 06:39:36;;;;;;;37.33;30.67;;;14.10;99.90;;;;;;5081175;28;20500;-79
2021/04/20 06:42:03;;;;;;;38.28;29.75;;;14.30;99.90;;;;;;5080182;28;20414;-78
2021/04/20 06:44:34;;;;;;;36.80;29.92;;;14.50;99.90;;;;;;5080061;28;20472;-78
2021/04/20 06:47:13;;;;;;;34.25;27.98;;;14.80;99.90;;;;;;5065844;28;20109;-79
2021/04/20 06:50:04;;;;;;;34.92;28.33;;;14.90;99.90;;;;;;5060371;28;20045;-79
2021/04/20 06:52:50;;;;;;;35.72;29.52;;;15.00;99.90;;;;;;5061266;28;20417;-81
2021/04/20 06:55:24;;;;;;;37.60;29.23;;;15.10;99.90;;;;;;5061138;28;20060;-80
2021/04/20 06:58:07;;;;;;;34.85;30.25;;;15.30;99.90;;;;;;5061566;28;20084;-80
2021/04/20 07:00:41;;;;;;;34.25;28.75;;;15.70;99.90;;;;;;5051819;28;20053;-80
2021/04/20 07:03:15;;;;;;;35.45;28.45;;;15.80;99.90;;;;;;5040637;28;20050;-80
2021/04/20 07:05:47;;;;;;;39.45;29.30;;;16.10;99.90;;;;;;5037317;28;20302;-77
2021/04/20 07:08:22;;;;;;;34.20;28.48;;;16.20;99.90;;;;;;5034153;28;20133;-78
2021/04/20 07:10:50;;;;;;;36.53;28.85;;;16.40;99.90;;;;;;5031848;28;20045;-78
2021/04/20 07:13:20;;;;;;;36.58;32.60;;;16.40;99.90;;;;;;5032493;28;20152;-80
2021/04/20 07:15:52;;;;;;;39.17;30.02;;;16.80;99.90;;;;;;5034069;28;20131;-78
2021/04/20 07:18:38;;;;;;;37.55;30.35;;;17.00;99.90;;;;;;5033211;28;20049;-78
2021/04/20 07:21:21;;;;;;;44.63;32.10;;;17.00;99.90;;;;;;5034212;28;20422;-78
2021/04/20 07:23:58;;;;;;;49.17;36.80;;;16.90;99.90;;;;;;5037046;28;20053;-79
2021/04/20 07:26:51;;;;;;;48.75;37.92;;;17.20;99.90;;;;;;5037672;28;20586;-79
2021/04/20 07:29:31;;;;;;;57.92;46.40;;;17.50;99.90;;;;;;5036624;28;20049;-79
2021/04/20 07:32:06;;;;;;;55.22;42.88;;;17.40;99.90;;;;;;5038388;28;20057;-80
2021/04/20 07:34:40;;;;;;;54.90;42.15;;;17.60;99.90;;;;;;5030004;28;20053;-78
2021/04/20 07:37:23;;;;;;;51.13;39.30;;;17.70;99.90;;;;;;5020987;28;20096;-79
2021/04/20 07:40:08;;;;;;;55.75;42.35;;;17.50;99.90;;;;;;5011007;28;20471;-78
2021/04/20 07:42:47;;;;;;;55.42;41.50;;;17.50;99.90;;;;;;5015091;28;20128;-78
2021/04/20 07:45:19;;;;;;;56.20;42.25;;;16.90;99.90;;;;;;5013572;28;20085;-78
2021/04/20 07:47:50;;;;;;;54.55;41.08;;;16.40;99.90;;;;;;5023316;28;20075;-79
2021/04/20 07:50:19;;;;;;;57.53;44.53;;;16.20;99.90;;;;;;5022962;28;20077;-78
2021/04/20 07:52:52;;;;;;;53.20;42.13;;;15.90;99.90;;;;;;5032502;28;20049;-79
2021/04/20 07:55:23;;;;;;;56.28;42.47;;;16.00;99.90;;;;;;5035247;28;20124;-78
2021/04/20 07:57:54;;;;;;;55.08;41.78;;;16.50;99.90;;;;;;5031483;28;20128;-81
2021/04/20 08:00:23;;;;;;;53.58;41.95;;;16.60;99.90;;;;;;5036411;28;20144;-79
2021/04/20 08:02:56;;;;;;;58.20;44.03;;;16.80;99.90;;;;;;5035695;28;20100;-79
2021/04/20 08:05:27;;;;;;;58.65;45.17;;;17.10;99.90;;;;;;5030073;28;20615;-79
2021/04/20 08:08:02;;;;;;;55.20;43.60;;;17.10;99.90;;;;;;5030525;28;20048;-78
2021/04/20 08:10:42;;;;;;;55.55;43.97;;;17.30;99.90;;;;;;5018509;28;20575;-79
2021/04/20 08:13:16;;;;;;;57.58;44.65;;;17.20;99.90;;;;;;5019037;28;20049;-78
2021/04/20 08:15:50;;;;;;;55.95;43.78;;;17.30;99.90;;;;;;5016447;28;20050;-79
2021/04/20 08:18:29;;;;;;;63.67;47.83;;;17.60;99.90;;;;;;5012891;28;20058;-78
2021/04/20 08:20:58;;;;;;;54.65;44.10;;;17.50;99.90;;;;;;5013915;28;20104;-79
2021/04/20 08:23:28;;;;;;;58.92;45.17;;;17.90;99.90;;;;;;5013670;28;20430;-79
2021/04/20 08:26:00;;;;;;;58.55;45.80;;;17.40;99.90;;;;;;5014330;28;20049;-77
2021/04/20 08:28:39;;;;;;;58.57;43.73;;;17.60;99.90;;;;;;5013777;28;20116;-78
2021/04/20 08:31:11;;;;;;;59.78;44.50;;;17.80;99.90;;;;;;5013858;28;20300;-79
2021/04/20 08:33:41;;;;;;;55.70;45.42;;;17.60;99.90;;;;;;5016861;28;20053;-78
2021/04/20 08:36:19;;;;;;;56.55;45.67;;;17.90;99.90;;;;;;5013772;28;20046;-76
2021/04/20 08:38:58;;;;;;;57.63;45.25;;;18.10;99.90;;;;;;5012335;28;20069;-77
2021/04/20 08:41:33;;;;;;;56.13;45.85;;;18.20;99.90;;;;;;5012804;28;20137;-77
2021/04/20 08:44:14;;;;;;;78.45;69.88;;;18.20;99.90;;;;;;5012951;28;20042;-76
2021/04/20 08:46:53;;;;;;;54.92;44.78;;;18.60;99.90;;;;;;5013534;28;20418;-79
2021/04/20 08:49:31;;;;;;;47.80;38.80;;;18.50;99.90;;;;;;5014604;28;20045;-79
2021/04/20 08:52:02;;;;;;;51.45;41.65;;;18.40;99.90;;;;;;5013786;28;20119;-78
2021/04/20 08:54:52;;;;;;;45.30;39.70;;;18.80;99.90;;;;;;5013374;28;20053;-76
2021/04/20 08:57:26;;;;;;;47.13;37.90;;;19.10;99.90;;;;;;5013425;28;20053;-76
2021/04/20 09:00:10;;;;;;;49.08;40.33;;;19.00;99.90;;;;;;5011667;28;20060;-76
2021/04/20 09:02:51;;;;;;;40.47;35.50;;;18.90;99.90;;;;;;5014094;28;20077;-77
2021/04/20 09:05:22;;;;;;;48.08;38.90;;;19.10;99.90;;;;;;5013647;28;20060;-77
2021/04/20 09:07:57;;;;;;;45.60;40.13;;;19.20;99.90;;;;;;5013493;28;20045;-76
2021/04/20 09:10:31;;;;;;;44.85;37.67;;;19.10;99.90;;;;;;5011976;28;20419;-77
2021/04/20 09:13:04;;;;;;;42.65;37.03;;;19.10;99.90;;;;;;5013322;28;20064;-77
2021/04/20 09:15:32;;;;;;;;;;;19.00;99.90;;;;;;5014400;28;20054;-78
2021/04/20 09:18:05;;;;;;;43.10;34.83;;;18.70;99.90;;;;;;5017016;28;19944;-78
2021/04/20 09:20:33;;;;;;;;;;;18.70;99.90;;;;;;5013685;28;20406;-78
2021/04/20 09:23:05;;;;;;;34.45;28.67;;;18.80;99.90;;;;;;5012242;28;19941;-78
2021/04/20 09:25:42;;;;;;;43.53;35.72;;;19.00;99.90;;;;;;5011935;28;20053;-77
2021/04/20 09:28:15;;;;;;;43.33;35.88;;;18.80;99.90;;;;;;5011185;28;20061;-76
2021/04/20 09:30:47;;;;;;;40.10;33.33;;;18.80;99.90;;;;;;5011447;28;20050;-77
2021/04/20 09:33:20;;;;;;;56.22;43.03;;;19.30;99.90;;;;;;5012067;28;20056;-77
2021/04/20 09:35:47;;;;;;;33.83;28.55;;;19.10;99.90;;;;;;5011935;28;20140;-77
2021/04/20 09:38:16;;;;;;;37.67;30.35;;;19.10;99.90;;;;;;5011825;28;20058;-76
2021/04/20 09:40:46;;;;;;;36.03;30.27;;;19.00;99.90;;;;;;5010554;28;20045;-77
2021/04/20 09:43:26;;;;;;;32.90;27.00;;;18.80;99.90;;;;;;5013004;28;20131;-78
2021/04/20 09:45:58;;;;;;;36.55;30.88;;;18.40;99.90;;;;;;5012454;28;20498;-77
2021/04/20 09:48:32;;;;;;;37.42;29.20;;;18.00;99.90;;;;;;5012382;28;20046;-76
2021/04/20 09:51:03;;;;;;;39.08;30.17;;;17.80;99.90;;;;;;5011091;28;20568;-77
2021/04/20 09:53:51;;;;;;;33.00;27.25;;;17.70;99.90;;;;;;5012019;28;20449;-77
2021/04/20 09:56:22;;;;;;;35.17;27.35;;;17.60;99.90;;;;;;5011602;28;20473;-78
2021/04/20 09:58:49;;;;;;;32.60;27.27;;;17.50;99.90;;;;;;5012273;28;20050;-76
2021/04/20 10:01:45;;;;;;;28.85;24.17;;;17.50;99.90;;;;;;5012964;28;20092;-79
2021/04/20 10:04:17;;;;;;;28.58;23.00;;;17.10;99.90;;;;;;5012181;28;20492;-78
2021/04/20 10:07:17;;;;;;;;;;;17.00;99.90;;;;;;5012727;28;20050;-77
2021/04/20 10:09:51;;;;;;;26.67;22.20;;;17.00;99.90;;;;;;4991281;28;19926;-76
2021/04/20 10:12:33;;;;;;;29.38;23.02;;;17.20;99.90;;;;;;4990613;28;20156;-77
2021/04/20 10:15:15;;;;;;;27.63;22.52;;;17.40;99.90;;;;;;5011186;28;20136;-76
2021/04/20 10:17:50;;;;;;;26.00;22.92;;;17.50;99.90;;;;;;5012784;28;20426;-77
2021/04/20 10:20:21;;;;;;;27.40;22.73;;;17.50;99.90;;;;;;5011607;28;20061;-77
2021/04/20 10:23:01;;;;;;;33.58;27.20;;;17.60;99.90;;;;;;5014354;28;20057;-77
2021/04/20 10:25:34;;;;;;;34.17;26.83;;;17.80;99.90;;;;;;5023884;28;20050;-77
2021/04/20 10:28:11;;;;;;;31.92;26.90;;;17.80;99.90;;;;;;5021204;28;20061;-76
2021/04/20 10:30:41;;;;;;;33.60;25.63;;;17.50;99.90;;;;;;5024380;28;20057;-76
2021/04/20 10:33:10;;;;;;;30.98;26.50;;;17.20;99.90;;;;;;5025522;28;20128;-78
2021/04/20 10:35:39;;;;;;;34.58;26.98;;;17.10;99.90;;;;;;5025264;28;20073;-75
2021/04/20 10:38:13;;;;;;;32.55;25.35;;;17.00;99.90;;;;;;5012796;28;20104;-76
2021/04/20 10:40:42;;;;;;;29.25;24.00;;;16.90;99.90;;;;;;5013208;28;20054;-79
2021/04/20 10:43:12;;;;;;;27.02;21.80;;;16.80;99.90;;;;;;5014376;28;20623;-79
2021/04/20 10:45:40;;;;;;;25.27;20.83;;;16.70;99.90;;;;;;5019350;28;20112;-80
2021/04/20 10:48:09;;;;;;;25.48;20.35;;;16.70;99.90;;;;;;5021293;28;20049;-79
2021/04/20 10:50:39;;;;;;;25.40;20.15;;;16.50;99.90;;;;;;5017116;28;20053;-77
2021/04/20 10:53:12;;;;;;;21.00;17.65;;;16.50;99.90;;;;;;5018243;28;20057;-78
2021/04/20 10:55:42;;;;;;;22.88;17.40;;;16.70;99.90;;;;;;5015814;28;20045;-79
2021/04/20 10:58:12;;;;;;;23.27;17.23;;;16.70;99.90;;;;;;5015645;28;20414;-81
2021/04/20 11:00:40;;;;;;;17.83;13.85;;;16.70;99.90;;;;;;5014819;28;20050;-78
2021/04/20 11:03:08;;;;;;;17.02;14.43;;;16.80;99.90;;;;;;5017486;28;20053;-78
2021/04/20 11:05:36;;;;;;;18.25;15.10;;;17.00;99.90;;;;;;5019213;28;20549;-78
2021/04/20 11:08:06;;;;;;;17.40;13.30;;;17.10;99.90;;;;;;5017442;28;20065;-77
2021/04/20 11:10:37;;;;;;;15.73;13.10;;;17.30;99.90;;;;;;5017331;28;20145;-77
2021/04/20 11:13:05;;;;;;;16.27;12.65;;;17.50;99.90;;;;;;5020868;28;20050;-79
2021/04/20 11:15:34;;;;;;;15.85;13.43;;;17.60;99.90;;;;;;5022263;28;20120;-79
2021/04/20 11:18:06;;;;;;;15.00;12.63;;;17.60;99.90;;;;;;5018538;28;20503;-77
2021/04/20 11:20:37;;;;;;;14.70;13.00;;;17.70;99.90;;;;;;5018907;28;20489;-78
2021/04/20 11:23:18;;;;;;;13.90;12.38;;;17.90;99.90;;;;;;5018893;28;20164;-77
2021/04/20 11:25:55;;;;;;;16.67;13.10;;;18.10;99.90;;;;;;5016908;28;20423;-78
2021/04/20 11:28:27;;;;;;;15.40;13.40;;;18.30;99.90;;;;;;5021582;28;20049;-78
2021/04/20 11:30:56;;;;;;;17.63;14.00;;;18.60;99.90;;;;;;5019948;28;20057;-78
2021/04/20 11:33:29;;;;;;;15.63;12.80;;;18.70;99.90;;;;;;5019896;28;20053;-79
2021/04/20 11:36:00;;;;;;;25.33;14.07;;;18.90;99.90;;;;;;5020414;28;20509;-77
2021/04/20 11:38:28;;;;;;;18.65;13.18;;;18.90;99.90;;;;;;5018044;28;20053;-78
2021/04/20 11:41:01;;;;;;;15.48;13.45;;;18.90;99.90;;;;;;5017821;28;20473;-78
2021/04/20 11:43:30;;;;;;;14.50;12.88;;;18.90;99.90;;;;;;5016490;28;20054;-79
2021/04/20 11:45:59;;;;;;;17.17;12.52;;;18.80;99.90;;;;;;5018709;28;20054;-78
2021/04/20 11:48:32;;;;;;;15.70;12.80;;;18.80;99.90;;;;;;5018294;28;20057;-78
2021/04/20 11:51:00;;;;;;;14.85;13.05;;;18.70;99.90;;;;;;5018630;28;20120;-77
2021/04/20 11:53:29;;;;;;;15.48;13.20;;;18.80;99.90;;;;;;5016544;28;20057;-78
2021/04/20 11:55:59;;;;;;;15.90;14.00;;;18.90;99.90;;;;;;5017716;28;20092;-79
2021/04/20 11:58:29;;;;;;;17.42;14.20;;;19.10;99.90;;;;;;5018068;28;20522;-78
2021/04/20 12:01:00;;;;;;;14.85;13.25;;;19.10;99.90;;;;;;5025225;28;20437;-77
2021/04/20 12:03:30;;;;;;;15.82;13.75;;;19.00;99.90;;;;;;5044647;28;20064;-75
2021/04/20 12:05:59;;;;;;;15.63;13.90;;;18.90;99.90;;;;;;5035452;28;20056;-77
2021/04/20 12:08:31;;;;;;;17.58;14.55;;;18.80;99.90;;;;;;5034202;28;20453;-78
2021/04/20 12:10:59;;;;;;;19.67;15.53;;;18.80;99.90;;;;;;5033802;28;20057;-77
2021/04/20 12:13:29;;;;;;;16.40;14.35;;;18.80;99.90;;;;;;5034855;28;20301;-76
2021/04/20 12:16:02;;;;;;;18.70;16.08;;;18.90;99.90;;;;;;5034042;28;20299;-76
2021/04/20 12:18:30;;;;;;;16.63;14.43;;;19.00;99.90;;;;;;5033871;28;20069;-78
2021/04/20 12:21:03;;;;;;;17.35;14.35;;;19.10;99.90;;;;;;5032921;28;20064;-77
2021/04/20 12:23:31;;;;;;;;;;;19.10;99.90;;;;;;5036453;28;20108;-79
2021/04/20 12:26:00;;;;;;;16.45;14.43;;;19.20;99.90;;;;;;5053618;28;19979;-78
2021/04/20 12:28:29;;;;;;;15.77;14.18;;;19.10;99.90;;;;;;5055587;28;20045;-77
2021/04/20 12:30:56;;;;;;;17.60;14.93;;;19.10;99.90;;;;;;5055452;28;20100;-78
2021/04/20 12:33:27;;;;;;;18.17;14.00;;;19.10;99.90;;;;;;5053973;28;20479;-76
2021/04/20 12:35:55;;;;;;;15.50;13.57;;;19.20;99.90;;;;;;5040260;28;20049;-78
2021/04/20 12:38:23;;;;;;;15.93;13.23;;;19.20;99.90;;;;;;5032636;28;20057;-77
2021/04/20 12:40:53;;;;;;;16.15;13.35;;;19.30;99.70;;;;;;5032099;28;20050;-77
2021/04/20 12:43:21;;;;;;;15.95;14.02;;;19.40;99.90;;;;;;5033439;28;20077;-78
2021/04/20 12:45:49;;;;;;;15.18;13.50;;;19.70;99.90;;;;;;5034247;28;20103;-78
2021/04/20 12:48:18;;;;;;;16.77;14.40;;;19.90;99.90;;;;;;5033536;28;20068;-78
2021/04/20 12:50:52;;;;;;;15.50;13.90;;;19.90;99.40;;;;;;5031650;28;20057;-78
2021/04/20 12:53:20;;;;;;;16.75;14.02;;;19.90;98.80;;;;;;5032653;28;20068;-78
2021/04/20 12:55:49;;;;;;;16.00;14.07;;;20.00;99.10;;;;;;5032219;28;20049;-78
2021/04/20 12:58:20;;;;;;;15.88;14.18;;;20.20;97.70;;;;;;5031927;28;20081;-78